Aérodrome :
LOGIN :

S'inscrire | Disclaimer

   EN    FR    IT 

 










Légende :    VFR   VFR Marginal   IFR   IFR Intensif   IFR Très Intensif
Visi : 
Plafond : 
>= 8 km
>= 3000ft
5 à 8 km
1000 à 3000 ft
1500m à 5 km
500 à 1000 ft
800 à 1500m
200 à 500 ft
< 800m
< 200 ft
Symboles :   Orages  Brouillard  Fortes neiges  Fortes précipitations  Vent > 20 kt
SIGMETs :   Divers  Orages  Givrage  Turbulence  Onde Orograph.  Cendres Volcan.






- Altitude de l'aérodrome : 160 ft
- Code IATA : FMO


EDDG - Münster Osnabrück Int.

DERNIER METAR :
  • 240050Z 01001KT 0800 R25/0650N FZFG FEW001 M03/M03 Q1025 TEMPO 0500 BKN001

METARs EXPIRÉS :
  • 240020Z 34001KT 0600 R25/0500N FZFG SCT001 M03/M03 Q1026 TEMPO 0500 BKN001
  • 232350Z VRB01KT 1600 BCFG BR FEW001 M03/M03 Q1026 TEMPO 1200
  • 232320Z 15001KT 1800 BCFG BR FEW001 M02/M03 Q1026 TEMPO 1200
  • 232250Z 16002KT 2300 BCFG BR NSC M02/M03 Q1026 TEMPO 0700 FZFG
  • 232220Z 00000KT 1800 0700W R25/1200U BCFG BR FEW001 M02/M03 Q1026 TEMPO 0700 FZFG

TAF TAF EDDG
Valide du 24 à 00h jusqu'au 25 à 00h UTC


232300Z 2400/2424 VRB03KT 2000 BCFG FEW001
BECMG 2400/2403 1200 BR
TEMPO 2400/2411 0500 FZFG BKN001
BECMG 2409/2412 2500 BKN004
PROB40
TEMPO 2412/2420 4000 BKN007
BECMG 2420/2423 4000 BKN007



MET'MAP, la Météo Aéronautique d'un coup d'oeil ! - Copyright ORBIFLY Décembre 2007 - Disclaimer

ORBIFLY MET'MAP TEAM :

Programmation & Développement : Alexandra Zaïnal
Sur une idée originale de : Baudouin d'Aumeries
Assistance à la programmation : Marc-Olivier Méhu
Soutien technique & logistique : Manuel Goepfert

Contact : metmap@orbifly.com




SOURCES & CREDITS :

   NOAA